Impacts METAR Board
IDs:

KDEN - Denver Intl, CO, US

Updated at: 1300 UTC 27 Feb 2021
Potential Impact None Slight Moderate High
Time 27/01Z 27/02Z 27/03Z 27/04Z 27/05Z 27/06Z 27/07Z 27/08Z 27/09Z 27/10Z 27/11Z 27/12Z 27/13Z
Temp28 26 25 22 25 24 25 22 22 22 24 19 20
Dewpt16 15 14 14 14 13 13 12 11 11 11 11 10
Altim29.71 29.72 29.72 29.74 29.75 29.74 29.72 29.71 29.71 29.70 29.69 29.67 29.66
VIS10 10 10 10 10 10 10 10 10 10 10 10 10
CIG-- -- -- -- -- -- 160 140 180 160 140 140 140
CoverFEWSCTFEWFEWSCTFEWBKNBKNBKNBKNBKNBKNBKN
FltCatVFRVFRVFRVFRVFRVFRVFRVFRVFRVFRVFRVFRVFR
WX--------------------------
WDir1501601601701201101201206050100110170
WSpd10 11 12 7 13 13 12 11 6 4 5 8 6
WGst-- -- -- -- -- -- 18 -- -- -- -- -- --
Raw hourly METARs
KDEN 270053Z 15010KT 10SM FEW080 FEW140 FEW200 M02/M09 A2971 RMK AO2 SLP095 T10221089
KDEN 270153Z 16011KT 10SM FEW080 FEW140 SCT200 M03/M09 A2972 RMK AO2 SLP100 T10331094
KDEN 270253Z 16012KT 10SM FEW080 FEW200 M04/M10 A2972 RMK AO2 SLP092 T10391100 50006
KDEN 270353Z 17007KT 10SM FEW100 FEW200 M06/M10 A2974 RMK AO2 SLP094 T10561100
KDEN 270453Z 12013KT 10SM FEW100 SCT200 M04/M10 A2975 RMK AO2 SLP090 T10391100
KDEN 270553Z 11013KT 10SM FEW200 M04/M11 A2974 RMK AO2 SLP084 T10441106 10011 21056 50008
KDEN 270653Z 12012G18KT 10SM BKN160 BKN200 M04/M11 A2972 RMK AO2 SLP072 T10391106 400501106
KDEN 270753Z 12011KT 10SM BKN140 BKN200 M06/M11 A2971 RMK AO2 SLP067 T10561111
KDEN 270853Z 06006KT 10SM SCT140 BKN180 M06/M12 A2971 RMK AO2 SLP070 T10561117 55010
KDEN 270953Z 05004KT 10SM SCT140 BKN160 M06/M12 A2970 RMK AO2 SLP069 T10561117
KDEN 271053Z 10005KT 10SM SCT120 BKN140 BKN160 M04/M12 A2969 RMK AO2 SLP064 T10441117
KDEN 271153Z 11008KT 10SM FEW110 BKN140 BKN160 M07/M12 A2967 RMK AO2 SLP065 T10721117 11033 21072 58012
KDEN 271253Z 17006KT 10SM FEW110 BKN140 BKN180 M07/M12 A2966 RMK AO2 SLP070 T10671122



Page loaded:  13:39 UTC  |   05:39 AM Pacific  |   06:39 AM Mountain  |   07:39 AM Central  |   08:39 AM Eastern

 

ADVISORIES

FORECASTS

FORECASTS

OBSERVATIONS

USER TOOLS

ABOUT US